createdAt,value
2022-09-12T00:01:27.058Z,84.05
2022-09-12T00:04:00.953Z,84.12
2022-09-12T00:06:34.098Z,84.18
2022-09-12T00:09:09.782Z,84.24
2022-09-12T00:11:41.482Z,84.30
2022-09-12T00:14:15.450Z,84.17
2022-09-12T00:16:43.717Z,84.05
2022-09-12T00:19:12.420Z,84.17
2022-09-12T00:21:41.794Z,84.21
2022-09-12T00:24:11.029Z,84.28
2022-09-12T00:26:38.894Z,84.47
2022-09-12T00:29:06.835Z,84.64
2022-09-12T00:31:34.709Z,84.52
2022-09-12T00:34:02.490Z,84.36
2022-09-12T00:36:30.943Z,84.33
2022-09-12T00:38:59.470Z,84.48
2022-09-12T00:41:34.162Z,84.33
2022-09-12T00:44:21.981Z,84.49
2022-09-12T00:47:00.558Z,84.72
2022-09-12T00:49:52.272Z,84.88
2022-09-12T00:52:34.991Z,85.13
2022-09-12T00:55:12.028Z,84.89
2022-09-12T00:57:55.502Z,85.02
2022-09-12T01:00:26.643Z,84.93
2022-09-12T01:03:09.035Z,84.93
2022-09-12T01:05:44.388Z,84.79
2022-09-12T01:08:12.500Z,84.90
2022-09-12T01:10:42.506Z,85.09
2022-09-12T01:13:11.260Z,85.24
2022-09-12T01:15:40.338Z,85.40
2022-09-12T01:18:56.583Z,85.38
2022-09-12T01:22:13.014Z,85.39
2022-09-12T01:24:56.014Z,85.44
2022-09-12T01:27:36.840Z,85.36
2022-09-12T01:30:24.018Z,85.56
2022-09-12T01:33:12.553Z,85.44
2022-09-12T01:36:30.914Z,85.27
2022-09-12T01:39:41.332Z,84.99
2022-09-12T01:42:27.723Z,85.13
2022-09-12T01:45:23.882Z,85.29
2022-09-12T01:48:05.943Z,85.42
2022-09-12T01:51:07.586Z,85.32
2022-09-12T01:53:44.023Z,85.31
2022-09-12T01:56:27.053Z,85.11
2022-09-12T01:59:20.145Z,85.30
2022-09-12T02:02:18.874Z,85.35
2022-09-12T02:05:05.873Z,85.12
2022-09-12T02:07:43.785Z,85.08
2022-09-12T02:10:23.299Z,84.81
2022-09-12T02:13:32.106Z,85.05
2022-09-12T02:16:12.004Z,85.10
2022-09-12T02:18:47.170Z,84.86
2022-09-12T02:21:19.415Z,84.80
2022-09-12T02:23:57.369Z,85.03
2022-09-12T02:26:34.910Z,84.86
2022-09-12T02:29:04.389Z,84.69
2022-09-12T02:31:37.742Z,84.69
2022-09-12T02:34:39.822Z,84.64
2022-09-12T02:37:45.796Z,84.52
2022-09-12T02:40:14.783Z,84.69
2022-09-12T02:42:42.735Z,84.86
2022-09-12T02:45:12.518Z,85.06
2022-09-12T02:47:46.842Z,85.02
2022-09-12T02:50:14.758Z,85.00
2022-09-12T02:52:43.675Z,85.07
2022-09-12T02:55:12.524Z,84.98
2022-09-12T02:57:40.523Z,85.02
2022-09-12T03:00:09.733Z,84.88
2022-09-12T03:03:19.918Z,84.86
2022-09-12T03:06:02.109Z,84.81
2022-09-12T03:09:01.370Z,84.80
2022-09-12T03:12:07.326Z,84.72
2022-09-12T03:15:14.769Z,84.87
2022-09-12T03:17:56.421Z,85.06
2022-09-12T03:20:47.853Z,85.24
2022-09-12T03:23:24.220Z,85.20
2022-09-12T03:26:02.223Z,85.46
2022-09-12T03:28:34.612Z,85.55
2022-09-12T03:31:14.467Z,85.68
2022-09-12T03:33:42.441Z,85.66
2022-09-12T03:36:24.194Z,85.73
2022-09-12T03:38:52.563Z,85.11
2022-09-12T03:41:21.243Z,84.87
2022-09-12T03:43:49.078Z,84.99
2022-09-12T03:46:16.766Z,84.96
2022-09-12T03:48:44.465Z,84.94
2022-09-12T03:51:12.370Z,85.03
2022-09-12T03:53:40.119Z,85.11
2022-09-12T03:56:11.423Z,85.10
2022-09-12T03:58:39.438Z,85.03
2022-09-12T04:01:13.348Z,84.47
2022-09-12T04:03:47.761Z,84.51
2022-09-12T04:06:20.202Z,84.58
2022-09-12T04:08:53.918Z,84.58
2022-09-12T04:11:23.664Z,84.70
2022-09-12T04:13:51.836Z,84.71
2022-09-12T04:16:20.233Z,84.77
2022-09-12T04:18:48.060Z,84.84
2022-09-12T04:21:19.615Z,84.80
2022-09-12T04:23:48.291Z,84.75
2022-09-12T04:26:18.022Z,84.86
2022-09-12T04:28:46.666Z,84.85
2022-09-12T04:31:18.358Z,84.85
2022-09-12T04:33:46.528Z,84.90
2022-09-12T04:36:17.529Z,85.09
2022-09-12T04:38:47.669Z,85.07
2022-09-12T04:41:30.877Z,85.27
2022-09-12T04:44:03.252Z,85.21
2022-09-12T04:46:35.677Z,85.29
2022-09-12T04:49:05.134Z,85.24
2022-09-12T04:51:36.409Z,85.28
2022-09-12T04:54:10.956Z,85.32
2022-09-12T04:56:41.297Z,85.57
2022-09-12T04:59:09.161Z,85.46
2022-09-12T05:01:37.191Z,85.26
2022-09-12T05:04:05.379Z,85.22
2022-09-12T05:06:37.060Z,85.09
2022-09-12T05:09:07.769Z,85.08
2022-09-12T05:12:03.309Z,85.30
2022-09-12T05:14:27.456Z,85.37
2022-09-12T05:16:59.671Z,85.51
2022-09-12T05:19:30.066Z,85.50
2022-09-12T05:21:58.991Z,85.31
2022-09-12T05:24:27.060Z,85.26
2022-09-12T05:26:55.189Z,85.20
2022-09-12T05:29:22.920Z,85.31
2022-09-12T05:31:53.417Z,85.35
2022-09-12T05:34:21.615Z,85.36
2022-09-12T05:36:49.570Z,85.23
2022-09-12T05:39:18.529Z,85.07
2022-09-12T05:41:47.306Z,85.12
2022-09-12T05:44:15.540Z,85.18
2022-09-12T05:46:51.330Z,85.41
2022-09-12T05:49:19.215Z,85.58
2022-09-12T05:51:46.921Z,85.65
2022-09-12T05:54:19.445Z,85.37
2022-09-12T05:56:48.848Z,85.27
2022-09-12T05:59:21.107Z,85.19
2022-09-12T06:01:49.120Z,85.18
2022-09-12T06:04:17.563Z,85.09
2022-09-12T06:06:46.809Z,85.03
2022-09-12T06:09:16.896Z,84.73
2022-09-12T06:11:46.574Z,84.90
2022-09-12T06:14:17.868Z,85.10
2022-09-12T06:16:47.367Z,85.14
2022-09-12T06:19:21.874Z,85.23
2022-09-12T06:21:53.468Z,85.15
2022-09-12T06:24:21.786Z,85.11
2022-09-12T06:26:52.813Z,85.06
2022-09-12T06:29:21.241Z,85.41
2022-09-12T06:31:48.945Z,85.66
2022-09-12T06:34:16.986Z,85.42
2022-09-12T06:36:48.739Z,85.32
2022-09-12T06:39:22.623Z,85.30
2022-09-12T06:41:52.210Z,84.95
2022-09-12T06:44:29.790Z,84.75
2022-09-12T06:46:58.693Z,84.82
2022-09-12T06:49:26.391Z,84.68
2022-09-12T06:51:54.004Z,84.64
2022-09-12T06:54:21.657Z,84.65
2022-09-12T06:56:49.379Z,84.60
2022-09-12T06:59:17.091Z,84.75
2022-09-12T07:01:44.767Z,84.79
2022-09-12T07:04:12.546Z,84.59
2022-09-12T07:06:43.996Z,84.56
2022-09-12T07:09:16.987Z,84.41
2022-09-12T07:11:46.090Z,84.06
2022-09-12T07:14:15.134Z,84.05
2022-09-12T07:16:43.493Z,83.94
2022-09-12T07:19:12.071Z,83.64
2022-09-12T07:21:40.772Z,83.40
2022-09-12T07:24:11.079Z,83.51
2022-09-12T07:26:42.229Z,83.38
2022-09-12T07:29:35.883Z,83.38
2022-09-12T07:32:05.823Z,83.43
2022-09-12T07:34:34.927Z,83.57
2022-09-12T07:37:03.127Z,83.56
2022-09-12T07:39:30.961Z,83.53
2022-09-12T07:41:59.170Z,83.37
2022-09-12T07:44:29.058Z,83.39
2022-09-12T07:46:56.728Z,83.38
2022-09-12T07:49:24.417Z,83.17
2022-09-12T07:51:52.170Z,83.30
2022-09-12T07:54:20.024Z,83.23
2022-09-12T07:56:47.703Z,83.01
2022-09-12T07:59:29.963Z,83.00
2022-09-12T08:02:03.953Z,82.95
2022-09-12T08:04:31.691Z,82.80
2022-09-12T08:06:59.357Z,82.30
2022-09-12T08:09:26.998Z,82.46
2022-09-12T08:11:54.662Z,82.52
2022-09-12T08:14:22.730Z,82.18
2022-09-12T08:16:50.334Z,82.04
2022-09-12T08:19:18.035Z,82.04
2022-09-12T08:21:45.757Z,81.87
2022-09-12T08:24:13.398Z,81.47
2022-09-12T08:26:41.167Z,81.30
2022-09-12T08:29:09.161Z,81.46
2022-09-12T08:31:37.025Z,81.40
2022-09-12T08:34:06.509Z,80.61
2022-09-12T08:36:35.440Z,80.53
2022-09-12T08:39:07.458Z,80.27
2022-09-12T08:41:40.983Z,80.21
2022-09-12T08:44:27.166Z,79.47
2022-09-12T08:47:10.815Z,79.42
2022-09-12T08:49:53.364Z,79.38
2022-09-12T08:52:37.282Z,79.46
2022-09-12T08:55:24.550Z,78.92
2022-09-12T08:57:53.646Z,78.81
2022-09-12T09:00:21.861Z,78.67
2022-09-12T09:03:01.731Z,78.52
2022-09-12T09:05:54.498Z,78.17
2022-09-12T09:08:58.350Z,77.93
2022-09-12T09:11:53.151Z,77.92
2022-09-12T09:14:54.458Z,77.83
2022-09-12T09:17:38.007Z,77.77
2022-09-12T09:20:28.529Z,77.58
2022-09-12T09:23:19.882Z,77.33
2022-09-12T09:26:01.746Z,77.21
2022-09-12T09:28:51.590Z,77.28
2022-09-12T09:31:23.487Z,77.46
2022-09-12T09:33:55.310Z,77.08
2022-09-12T09:36:41.146Z,76.35
2022-09-12T09:39:44.012Z,76.17
2022-09-12T09:42:54.152Z,76.10
2022-09-12T09:45:24.901Z,75.88
2022-09-12T09:48:27.658Z,75.64
2022-09-12T09:51:00.357Z,75.14
2022-09-12T09:53:48.801Z,75.32
2022-09-12T09:56:40.260Z,75.19
2022-09-12T09:59:28.206Z,75.30
2022-09-12T10:02:14.052Z,75.13
2022-09-12T10:04:55.915Z,74.89
2022-09-12T10:07:26.075Z,74.68
2022-09-12T10:10:19.591Z,74.35
2022-09-12T10:12:47.404Z,73.36
2022-09-12T10:15:21.571Z,73.15
2022-09-12T10:17:51.040Z,72.98
2022-09-12T10:20:42.993Z,73.13
2022-09-12T10:23:37.549Z,72.66
2022-09-12T10:26:13.057Z,72.52
2022-09-12T10:28:48.025Z,72.15
2022-09-12T10:31:29.656Z,72.19
2022-09-12T10:34:00.277Z,72.51
2022-09-12T10:36:40.456Z,72.13
2022-09-12T10:39:19.161Z,71.38
2022-09-12T10:41:47.149Z,70.40
2022-09-12T10:44:26.480Z,70.38
2022-09-12T10:46:55.422Z,69.43
2022-09-12T10:49:31.145Z,69.10
2022-09-12T10:52:22.561Z,68.52
2022-09-12T10:54:52.242Z,68.33
2022-09-12T10:57:51.135Z,68.33
2022-09-12T11:00:27.452Z,67.57
2022-09-12T11:03:52.237Z,66.21
2022-09-12T11:06:32.202Z,65.87
2022-09-12T11:09:24.026Z,65.55
2022-09-12T11:12:36.686Z,65.64
2022-09-12T11:16:00.355Z,65.90
2022-09-12T11:19:03.310Z,65.32
2022-09-12T11:22:19.330Z,65.71
2022-09-12T11:25:20.084Z,66.05
2022-09-12T11:28:14.098Z,66.29
2022-09-12T11:31:22.552Z,66.26
2022-09-12T11:33:56.670Z,66.56
2022-09-12T11:36:36.927Z,66.25
2022-09-12T11:39:21.937Z,66.16
2022-09-12T11:41:56.922Z,65.37
2022-09-12T11:44:41.798Z,65.59
2022-09-12T11:47:14.488Z,65.36
2022-09-12T11:49:51.450Z,63.64
2022-09-12T11:52:26.914Z,63.14
2022-09-12T11:55:17.097Z,63.25
2022-09-12T11:57:54.949Z,62.22
2022-09-12T12:00:39.788Z,61.93
2022-09-12T12:03:37.167Z,62.08
2022-09-12T12:06:30.698Z,61.49
2022-09-12T12:08:59.171Z,62.10
2022-09-12T12:11:37.560Z,61.90
2022-09-12T12:14:20.790Z,61.21
2022-09-12T12:16:49.994Z,61.18
2022-09-12T12:19:17.555Z,60.96
2022-09-12T12:21:50.938Z,60.90
2022-09-12T12:24:26.617Z,60.95
2022-09-12T12:27:43.731Z,60.29
2022-09-12T12:30:29.451Z,59.67
2022-09-12T12:33:15.998Z,60.24
2022-09-12T12:36:03.453Z,60.11
2022-09-12T12:38:43.027Z,59.73
2022-09-12T12:41:16.424Z,59.82
2022-09-12T12:43:50.189Z,60.47
2022-09-12T12:46:24.114Z,60.58
2022-09-12T12:49:11.107Z,60.21
2022-09-12T12:52:02.393Z,60.66
2022-09-12T12:54:33.745Z,60.42
2022-09-12T12:57:20.243Z,60.10
2022-09-12T12:59:56.323Z,60.31
2022-09-12T13:02:26.976Z,59.58
2022-09-12T13:04:56.318Z,59.73
2022-09-12T13:07:39.454Z,59.80
2022-09-12T13:10:08.442Z,59.41
2022-09-12T13:12:48.924Z,59.44
2022-09-12T13:15:49.509Z,59.27
2022-09-12T13:18:28.247Z,58.94
2022-09-12T13:21:11.715Z,59.18
2022-09-12T13:23:40.687Z,58.98
2022-09-12T13:26:21.341Z,58.60
2022-09-12T13:28:50.153Z,58.43
2022-09-12T13:31:31.110Z,58.06
2022-09-12T13:34:04.113Z,57.78
2022-09-12T13:36:51.333Z,57.13
2022-09-12T13:39:28.840Z,57.12
2022-09-12T13:42:43.711Z,56.97
2022-09-12T13:45:23.092Z,56.73
2022-09-12T13:48:01.958Z,57.10
2022-09-12T13:51:06.121Z,56.96
2022-09-12T13:53:47.369Z,56.80
2022-09-12T13:56:20.742Z,56.58
2022-09-12T13:58:57.583Z,57.06
2022-09-12T14:01:42.863Z,57.06
2022-09-12T14:04:39.666Z,57.55
2022-09-12T14:07:23.485Z,57.56
2022-09-12T14:10:00.962Z,57.70
2022-09-12T14:12:40.328Z,57.51
2022-09-12T14:15:24.570Z,57.66
2022-09-12T14:18:03.157Z,57.50
2022-09-12T14:20:37.860Z,57.27
2022-09-12T14:23:21.496Z,57.29
2022-09-12T14:25:49.997Z,57.13
2022-09-12T14:28:23.171Z,57.43
2022-09-12T14:31:06.680Z,57.17
2022-09-12T14:34:09.624Z,56.59
2022-09-12T14:36:51.914Z,54.77
2022-09-12T14:39:34.031Z,55.63
2022-09-12T14:42:20.998Z,55.89
2022-09-12T14:45:31.377Z,55.42
2022-09-12T14:47:59.484Z,55.19
2022-09-12T14:50:35.289Z,54.21
2022-09-12T14:53:23.262Z,54.87
2022-09-12T14:55:58.133Z,55.47
2022-09-12T14:58:28.190Z,55.51
2022-09-12T15:01:08.268Z,55.79
2022-09-12T15:03:53.395Z,55.99
2022-09-12T15:06:29.235Z,55.73
2022-09-12T15:09:08.445Z,55.92
2022-09-12T15:11:36.172Z,55.90
2022-09-12T15:14:13.988Z,56.09
2022-09-12T15:16:42.069Z,56.28
2022-09-12T15:19:09.736Z,56.88
2022-09-12T15:21:37.806Z,56.90
2022-09-12T15:24:05.658Z,57.00
2022-09-12T15:26:33.362Z,57.15
2022-09-12T15:29:01.065Z,56.82
2022-09-12T15:31:31.627Z,57.22
2022-09-12T15:34:01.636Z,57.56
2022-09-12T15:36:29.870Z,57.62
2022-09-12T15:38:58.349Z,57.90
2022-09-12T15:41:37.403Z,57.44
2022-09-12T15:44:11.146Z,58.28
2022-09-12T15:46:39.535Z,58.69
2022-09-12T15:49:07.525Z,58.74
2022-09-12T15:51:35.210Z,58.14
2022-09-12T15:54:04.853Z,58.84
2022-09-12T15:56:32.704Z,58.55
2022-09-12T15:59:00.557Z,58.70
2022-09-12T16:01:29.328Z,58.63
2022-09-12T16:03:57.886Z,58.79
2022-09-12T16:06:27.608Z,58.85
2022-09-12T16:08:55.412Z,59.12
2022-09-12T16:11:26.709Z,58.92
2022-09-12T16:13:56.827Z,59.13
2022-09-12T16:16:24.623Z,59.20
2022-09-12T16:18:52.830Z,58.69
2022-09-12T16:21:20.686Z,58.66
2022-09-12T16:23:49.352Z,58.87
2022-09-12T16:26:17.454Z,58.80
2022-09-12T16:28:45.714Z,57.98
2022-09-12T16:31:14.480Z,57.48
2022-09-12T16:33:42.199Z,57.45
2022-09-12T16:36:14.154Z,57.62
2022-09-12T16:38:47.805Z,57.96
2022-09-12T16:41:17.651Z,57.66
2022-09-12T16:43:46.234Z,57.84
2022-09-12T16:46:21.295Z,57.71
2022-09-12T16:48:52.935Z,57.62
2022-09-12T16:51:28.130Z,58.38
2022-09-12T16:53:56.290Z,58.40
2022-09-12T16:56:25.309Z,58.68
2022-09-12T16:58:54.287Z,58.91
2022-09-12T17:01:25.446Z,59.18
2022-09-12T17:03:58.789Z,59.47
2022-09-12T17:06:27.949Z,59.55
2022-09-12T17:09:06.401Z,59.82
2022-09-12T17:11:38.128Z,60.16
2022-09-12T17:14:08.650Z,60.65
2022-09-12T17:16:47.980Z,60.94
2022-09-12T17:19:26.693Z,61.45
2022-09-12T17:21:54.770Z,61.50
2022-09-12T17:24:23.071Z,61.62
2022-09-12T17:26:51.747Z,61.63
2022-09-12T17:29:19.862Z,61.86
2022-09-12T17:31:48.175Z,62.26
2022-09-12T17:34:17.586Z,62.43
2022-09-12T17:36:45.669Z,62.41
2022-09-12T17:39:14.698Z,62.82
2022-09-12T17:41:43.156Z,63.12
2022-09-12T17:44:13.759Z,63.27
2022-09-12T17:46:42.429Z,63.16
2022-09-12T17:49:18.569Z,63.61
2022-09-12T17:51:46.398Z,63.80
2022-09-12T17:54:17.749Z,64.14
2022-09-12T17:56:47.366Z,64.32
2022-09-12T17:59:21.815Z,64.63
2022-09-12T18:02:08.113Z,64.95
2022-09-12T18:04:35.815Z,65.19
2022-09-12T18:07:05.938Z,65.39
2022-09-12T18:09:34.114Z,65.62
2022-09-12T18:12:02.198Z,65.95
2022-09-12T18:14:29.917Z,66.20
2022-09-12T18:16:57.757Z,66.40
2022-09-12T18:19:26.639Z,66.61
2022-09-12T18:21:55.938Z,66.67
2022-09-12T18:24:24.071Z,66.92
2022-09-12T18:26:51.808Z,67.08
2022-09-12T18:29:20.041Z,66.93
2022-09-12T18:31:49.085Z,66.86
2022-09-12T18:34:18.227Z,67.11
2022-09-12T18:36:50.956Z,67.24
2022-09-12T18:39:18.778Z,67.22
2022-09-12T18:41:46.530Z,67.09
2022-09-12T18:44:14.343Z,67.06
2022-09-12T18:46:42.157Z,67.16
2022-09-12T18:49:10.396Z,66.98
2022-09-12T18:51:40.132Z,67.00
2022-09-12T18:54:13.981Z,67.45
2022-09-12T18:56:43.937Z,67.50
2022-09-12T18:59:15.263Z,67.70
2022-09-12T19:01:43.875Z,67.85
2022-09-12T19:04:14.324Z,67.83
2022-09-12T19:06:48.188Z,67.92
2022-09-12T19:09:18.956Z,67.93
2022-09-12T19:11:50.703Z,68.09
2022-09-12T19:14:22.800Z,68.31
2022-09-12T19:16:52.003Z,68.32
2022-09-12T19:19:20.533Z,68.36
2022-09-12T19:21:48.292Z,68.47
2022-09-12T19:24:17.187Z,68.61
2022-09-12T19:26:45.392Z,68.70
2022-09-12T19:29:14.708Z,68.79
2022-09-12T19:31:44.901Z,68.81
2022-09-12T19:34:17.355Z,68.91
2022-09-12T19:36:46.918Z,68.73
2022-09-12T19:39:19.943Z,68.84
2022-09-12T19:41:58.079Z,68.80
2022-09-12T19:44:28.658Z,68.76
2022-09-12T19:47:03.472Z,68.78
2022-09-12T19:49:44.689Z,68.92
2022-09-12T19:52:17.547Z,68.93
2022-09-12T19:54:49.284Z,69.10
2022-09-12T19:57:21.012Z,68.92
2022-09-12T19:59:49.971Z,68.91
2022-09-12T20:02:21.472Z,69.01
2022-09-12T20:04:49.546Z,68.99
2022-09-12T20:07:17.463Z,68.98
2022-09-12T20:09:45.944Z,69.18
2022-09-12T20:12:24.182Z,69.44
2022-09-12T20:14:57.161Z,69.86
2022-09-12T20:17:27.991Z,70.16
2022-09-12T20:19:56.467Z,70.45
2022-09-12T20:22:24.842Z,70.44
2022-09-12T20:24:52.943Z,70.62
2022-09-12T20:27:20.963Z,70.96
2022-09-12T20:29:49.900Z,70.95
2022-09-12T20:32:22.178Z,71.02
2022-09-12T20:34:51.827Z,71.21
2022-09-12T20:37:21.242Z,71.38
2022-09-12T20:39:51.894Z,71.87
2022-09-12T20:42:20.289Z,72.35
2022-09-12T20:44:48.822Z,72.61
2022-09-12T20:47:16.692Z,72.86
2022-09-12T20:49:44.395Z,72.58
2022-09-12T20:52:12.127Z,72.54
2022-09-12T20:54:47.505Z,72.68
2022-09-12T20:57:15.212Z,72.68
2022-09-12T20:59:56.912Z,73.18
2022-09-12T21:02:24.767Z,73.41
2022-09-12T21:04:52.752Z,73.65
2022-09-12T21:07:20.450Z,73.69
2022-09-12T21:09:48.091Z,73.97
2022-09-12T21:12:15.886Z,73.88
2022-09-12T21:14:43.622Z,73.77
2022-09-12T21:17:11.362Z,73.68
2022-09-12T21:19:39.318Z,73.79
2022-09-12T21:22:07.042Z,74.03
2022-09-12T21:24:34.766Z,74.29
2022-09-12T21:27:04.555Z,74.42
2022-09-12T21:29:32.664Z,74.38
2022-09-12T21:32:00.338Z,74.35
2022-09-12T21:34:28.190Z,74.31
2022-09-12T21:36:55.857Z,74.67
2022-09-12T21:39:23.777Z,74.71
2022-09-12T21:41:51.450Z,74.73
2022-09-12T21:44:19.206Z,74.82
2022-09-12T21:46:46.954Z,74.87
2022-09-12T21:49:14.760Z,74.94
2022-09-12T21:51:42.509Z,75.08
2022-09-12T21:54:10.165Z,75.31
2022-09-12T21:56:37.953Z,75.38
2022-09-12T21:59:05.678Z,75.30
2022-09-12T22:01:33.618Z,75.15
2022-09-12T22:04:01.409Z,75.22
2022-09-12T22:06:29.187Z,75.55
2022-09-12T22:08:57.023Z,75.93
2022-09-12T22:11:24.778Z,76.17
2022-09-12T22:13:52.850Z,76.33
2022-09-12T22:16:20.691Z,76.63
2022-09-12T22:18:50.586Z,76.78
2022-09-12T22:21:24.245Z,76.66
2022-09-12T22:24:10.592Z,76.59
2022-09-12T22:26:44.842Z,76.78
2022-09-12T22:29:13.605Z,77.18
2022-09-12T22:31:41.778Z,77.39
2022-09-12T22:34:09.857Z,77.47
2022-09-12T22:36:39.193Z,77.38
2022-09-12T22:39:08.262Z,77.32
2022-09-12T22:41:36.232Z,77.80
2022-09-12T22:44:04.088Z,77.88
2022-09-12T22:46:32.486Z,78.12
2022-09-12T22:49:00.695Z,78.52
2022-09-12T22:51:28.522Z,78.49
2022-09-12T22:53:56.855Z,78.32
2022-09-12T22:56:26.049Z,78.44
2022-09-12T22:58:54.231Z,78.06
2022-09-12T23:01:22.887Z,78.01
2022-09-12T23:03:51.645Z,78.20
2022-09-12T23:06:21.032Z,78.14
2022-09-12T23:08:48.737Z,78.24
2022-09-12T23:11:21.456Z,78.38
2022-09-12T23:13:51.386Z,78.24
2022-09-12T23:16:25.993Z,78.08
2022-09-12T23:18:54.124Z,78.26
2022-09-12T23:21:22.468Z,78.32
2022-09-12T23:23:50.902Z,78.29
2022-09-12T23:26:24.862Z,78.20
2022-09-12T23:28:56.922Z,78.33
2022-09-12T23:31:32.229Z,78.48
2022-09-12T23:34:06.018Z,78.60
2022-09-12T23:36:35.592Z,78.77
2022-09-12T23:39:03.537Z,78.66
2022-09-12T23:41:31.650Z,78.53
2022-09-12T23:43:59.648Z,78.49
2022-09-12T23:46:27.495Z,78.34
2022-09-12T23:48:55.243Z,78.38
2022-09-12T23:51:23.081Z,78.30
2022-09-12T23:53:53.135Z,78.40
2022-09-12T23:56:22.130Z,78.48
2022-09-12T23:58:50.175Z,78.47
